createdAt,value
2017-12-05T00:02:26.227Z,8.27
2017-12-05T00:04:54.052Z,6.67
2017-12-05T00:10:22.944Z,6.20
2017-12-05T00:12:50.785Z,6.50
2017-12-05T00:15:18.610Z,7.60
2017-12-05T00:17:46.471Z,7.13
2017-12-05T00:20:14.308Z,7.03
2017-12-05T00:22:42.174Z,6.10
2017-12-05T00:25:10.048Z,6.63
2017-12-05T00:27:37.900Z,6.60
2017-12-05T00:30:05.773Z,6.37
2017-12-05T00:32:33.596Z,6.50
2017-12-05T00:35:01.436Z,7.13
2017-12-05T00:37:29.301Z,6.40
2017-12-05T00:39:57.148Z,6.30
2017-12-05T00:42:25.003Z,7.13
2017-12-05T00:44:52.855Z,6.33
2017-12-05T00:47:20.740Z,6.20
2017-12-05T00:49:48.573Z,5.67
2017-12-05T00:52:16.467Z,5.77
2017-12-05T00:54:44.293Z,6.27
2017-12-05T00:57:12.135Z,5.40
2017-12-05T00:59:40.084Z,5.13
2017-12-05T01:02:07.946Z,5.43
2017-12-05T01:04:35.790Z,6.30
2017-12-05T01:07:03.659Z,7.10
2017-12-05T01:09:31.523Z,5.80
2017-12-05T01:11:59.454Z,6.60
2017-12-05T01:14:27.323Z,6.20
2017-12-05T01:16:55.190Z,6.47
2017-12-05T01:19:23.056Z,7.37
2017-12-05T01:21:50.903Z,6.80
2017-12-05T01:24:18.753Z,5.67
2017-12-05T01:26:46.580Z,6.37
2017-12-05T01:29:14.489Z,5.80
2017-12-05T01:31:42.355Z,5.67
2017-12-05T01:34:10.222Z,4.83
2017-12-05T01:36:38.087Z,5.90
2017-12-05T01:39:05.947Z,5.37
2017-12-05T01:41:33.800Z,6.03
2017-12-05T01:44:01.651Z,4.70
2017-12-05T01:46:42.510Z,5.50
2017-12-05T01:49:10.356Z,4.63
2017-12-05T01:51:38.180Z,6.23
2017-12-05T01:54:06.078Z,6.20
2017-12-05T01:56:33.934Z,7.13
2017-12-05T01:59:01.808Z,6.90
2017-12-05T02:01:29.624Z,8.40
2017-12-05T02:03:57.484Z,7.63
2017-12-05T02:06:25.360Z,6.40
2017-12-05T02:08:53.173Z,7.70
2017-12-05T02:11:21.058Z,7.50
2017-12-05T02:13:48.924Z,7.10
2017-12-05T02:16:16.776Z,7.70
2017-12-05T02:18:44.609Z,7.67
2017-12-05T02:21:12.468Z,6.17
2017-12-05T02:26:14.765Z,6.27
2017-12-05T02:28:42.624Z,5.80
2017-12-05T02:31:10.440Z,5.60
2017-12-05T02:33:38.272Z,6.17
2017-12-05T02:36:06.128Z,6.57
2017-12-05T02:38:39.981Z,4.63
2017-12-05T02:41:08.684Z,5.50
2017-12-05T02:43:36.551Z,4.37
2017-12-05T02:46:04.401Z,5.40
2017-12-05T02:48:32.230Z,4.03
2017-12-05T02:51:00.072Z,4.30
2017-12-05T02:53:27.912Z,4.67
2017-12-05T02:55:55.761Z,3.93
2017-12-05T02:58:23.627Z,4.20
2017-12-05T03:00:51.452Z,4.33
2017-12-05T03:03:19.295Z,3.40
2017-12-05T03:05:47.123Z,3.97
2017-12-05T03:08:14.948Z,4.30
2017-12-05T03:10:42.792Z,3.80
2017-12-05T03:13:10.625Z,3.87
2017-12-05T03:15:38.480Z,4.87
2017-12-05T03:18:06.293Z,3.80
2017-12-05T03:20:34.154Z,3.87
2017-12-05T03:23:02.028Z,4.00
2017-12-05T03:25:29.885Z,4.60
2017-12-05T03:27:57.736Z,4.70
2017-12-05T03:30:25.573Z,4.43
2017-12-05T03:32:53.388Z,5.80
2017-12-05T03:35:21.247Z,5.03
2017-12-05T03:37:49.093Z,5.00
2017-12-05T03:40:16.931Z,5.00
2017-12-05T03:42:44.805Z,5.23
2017-12-05T03:45:12.619Z,6.70
2017-12-05T03:47:40.458Z,6.57
2017-12-05T03:50:08.300Z,6.70
2017-12-05T03:52:36.182Z,7.00
2017-12-05T03:55:04.024Z,7.70
2017-12-05T03:57:40.252Z,6.40
2017-12-05T04:00:08.286Z,8.33
2017-12-05T04:02:36.104Z,6.10
2017-12-05T04:05:03.931Z,6.73
2017-12-05T04:07:31.768Z,6.13
2017-12-05T04:09:59.601Z,5.70
2017-12-05T04:12:27.456Z,5.40
2017-12-05T04:14:55.305Z,5.20
2017-12-05T04:17:23.165Z,5.43
2017-12-05T04:19:50.992Z,5.40
2017-12-05T04:22:18.840Z,4.40
2017-12-05T04:24:46.724Z,5.63
2017-12-05T04:27:14.583Z,5.37
2017-12-05T04:29:42.444Z,4.40
2017-12-05T04:32:10.329Z,5.00
2017-12-05T04:34:38.193Z,3.80
2017-12-05T04:37:06.044Z,4.20
2017-12-05T04:39:33.952Z,3.30
2017-12-05T04:42:01.880Z,4.40
2017-12-05T04:44:29.785Z,3.60
2017-12-05T04:46:57.650Z,3.53
2017-12-05T04:49:25.554Z,2.43
2017-12-05T04:51:53.421Z,2.93
2017-12-05T04:54:21.248Z,2.30
2017-12-05T04:56:55.613Z,1.90
2017-12-05T04:59:23.465Z,2.60
2017-12-05T05:01:51.325Z,2.87
2017-12-05T05:04:19.201Z,4.43
2017-12-05T05:06:47.048Z,2.70
2017-12-05T05:09:14.901Z,3.37
2017-12-05T05:11:42.744Z,5.17
2017-12-05T05:14:10.570Z,4.90
2017-12-05T05:16:38.472Z,4.80
2017-12-05T05:19:06.364Z,5.23
2017-12-05T05:21:34.209Z,4.27
2017-12-05T05:24:02.077Z,5.03
2017-12-05T05:26:29.942Z,5.97
2017-12-05T05:28:57.809Z,6.30
2017-12-05T05:31:25.673Z,6.23
2017-12-05T05:33:53.515Z,5.30
2017-12-05T05:36:21.333Z,5.50
2017-12-05T05:38:49.147Z,6.30
2017-12-05T05:41:17.028Z,5.73
2017-12-05T05:43:44.885Z,5.40
2017-12-05T05:46:12.760Z,5.53
2017-12-05T05:48:40.629Z,4.30
2017-12-05T05:51:08.480Z,4.20
2017-12-05T05:53:36.332Z,6.40
2017-12-05T05:56:04.227Z,5.53
2017-12-05T05:58:38.221Z,4.17
2017-12-05T06:01:06.090Z,4.37
2017-12-05T06:03:33.916Z,4.50
2017-12-05T06:06:02.752Z,4.70
2017-12-05T06:08:30.616Z,4.50
2017-12-05T06:10:58.487Z,4.73
2017-12-05T06:13:26.346Z,4.80
2017-12-05T06:18:55.280Z,4.77
2017-12-05T06:21:23.147Z,5.23
2017-12-05T06:23:51.017Z,4.70
2017-12-05T06:26:18.880Z,5.17
2017-12-05T06:28:46.720Z,4.70
2017-12-05T06:31:14.572Z,4.97
2017-12-05T06:33:42.433Z,5.07
2017-12-05T06:36:10.272Z,3.60
2017-12-05T06:38:38.207Z,5.37
2017-12-05T06:41:06.087Z,5.70
2017-12-05T06:43:33.920Z,5.20
2017-12-05T06:46:01.766Z,4.83
2017-12-05T06:48:29.628Z,5.43
2017-12-05T06:50:57.467Z,5.93
2017-12-05T06:53:25.317Z,5.53
2017-12-05T06:55:53.180Z,4.43
2017-12-05T06:58:21.034Z,4.10
2017-12-05T07:00:48.906Z,5.87
2017-12-05T07:03:16.785Z,5.73
2017-12-05T07:05:44.664Z,6.53
2017-12-05T07:08:19.048Z,6.10
2017-12-05T07:10:46.926Z,5.47
2017-12-05T07:13:14.731Z,7.00
2017-12-05T07:15:42.594Z,5.63
2017-12-05T07:18:10.464Z,6.90
2017-12-05T07:20:38.333Z,6.33
2017-12-05T07:23:06.201Z,5.80
2017-12-05T07:25:34.079Z,5.90
2017-12-05T07:28:08.264Z,3.73
2017-12-05T07:30:36.096Z,6.23
2017-12-05T07:33:03.964Z,6.37
2017-12-05T07:35:31.780Z,7.80
2017-12-05T07:37:59.636Z,7.70
2017-12-05T07:40:27.490Z,7.30
2017-12-05T07:42:55.349Z,7.93
2017-12-05T07:45:23.197Z,6.30
2017-12-05T07:47:51.064Z,7.87
2017-12-05T07:50:18.916Z,8.20
2017-12-05T07:52:46.756Z,7.53
2017-12-05T07:55:14.600Z,6.20
2017-12-05T07:57:42.513Z,5.43
2017-12-05T08:00:10.669Z,5.07
2017-12-05T08:02:38.569Z,6.93
2017-12-05T08:05:06.477Z,6.40
2017-12-05T08:07:34.340Z,7.87
2017-12-05T08:10:02.202Z,7.63
2017-12-05T08:12:30.118Z,6.70
2017-12-05T08:14:57.965Z,8.23
2017-12-05T08:17:25.804Z,8.80
2017-12-05T08:19:53.672Z,8.80
2017-12-05T08:22:21.582Z,4.97
2017-12-05T08:24:49.464Z,6.17
2017-12-05T08:27:17.315Z,6.17
2017-12-05T08:29:45.201Z,6.70
2017-12-05T08:32:13.172Z,7.60
2017-12-05T08:34:41.076Z,6.87
2017-12-05T08:37:14.972Z,7.07
2017-12-05T08:39:42.855Z,6.50
2017-12-05T08:42:10.720Z,7.63
2017-12-05T08:44:38.602Z,5.97
2017-12-05T08:47:06.489Z,8.00
2017-12-05T08:49:34.360Z,8.37
2017-12-05T08:52:02.192Z,7.13
2017-12-05T08:54:30.048Z,6.47
2017-12-05T08:56:57.891Z,8.63
2017-12-05T08:59:25.781Z,7.43
2017-12-05T09:01:53.664Z,5.63
2017-12-05T09:04:21.533Z,7.10
2017-12-05T09:06:49.381Z,7.60
2017-12-05T09:09:17.269Z,8.07
2017-12-05T09:11:45.114Z,8.00
2017-12-05T09:14:12.972Z,9.37
2017-12-05T09:16:40.852Z,8.43
2017-12-05T09:19:08.705Z,8.43
2017-12-05T09:21:36.616Z,7.30
2017-12-05T09:24:04.492Z,5.70
2017-12-05T09:26:32.380Z,7.47
2017-12-05T09:29:00.240Z,7.83
2017-12-05T09:31:28.081Z,8.30
2017-12-05T09:33:55.900Z,7.90
2017-12-05T09:36:23.736Z,10.23
2017-12-05T09:41:39.203Z,8.80
2017-12-05T09:44:07.075Z,10.87
2017-12-05T09:46:41.067Z,10.33
2017-12-05T09:49:08.952Z,9.73
2017-12-05T09:51:36.830Z,9.10
2017-12-05T09:54:04.689Z,9.17
2017-12-05T09:56:32.550Z,9.97
2017-12-05T09:59:00.401Z,8.70
2017-12-05T10:01:36.078Z,10.20
2017-12-05T10:04:03.942Z,8.33
2017-12-05T10:06:31.796Z,10.80
2017-12-05T10:08:59.657Z,10.23
2017-12-05T10:11:27.523Z,10.53
2017-12-05T10:13:55.361Z,11.50
2017-12-05T10:16:23.228Z,9.50
2017-12-05T10:18:51.076Z,9.77
2017-12-05T10:21:18.946Z,9.90
2017-12-05T10:23:46.828Z,11.67
2017-12-05T10:26:14.644Z,13.03
2017-12-05T10:28:42.511Z,12.50
2017-12-05T10:31:10.356Z,11.27
2017-12-05T10:33:38.216Z,9.50
2017-12-05T10:36:06.068Z,12.30
2017-12-05T10:38:33.934Z,10.33
2017-12-05T10:41:01.787Z,10.43
2017-12-05T10:43:29.636Z,9.60
2017-12-05T10:45:57.472Z,10.67
2017-12-05T10:48:28.763Z,9.90
2017-12-05T10:50:56.618Z,8.40
2017-12-05T10:53:24.487Z,9.60
2017-12-05T10:55:52.391Z,7.70
2017-12-05T10:58:23.701Z,7.70
2017-12-05T11:00:51.560Z,9.83
2017-12-05T11:03:19.439Z,9.30
2017-12-05T11:05:47.354Z,9.73
2017-12-05T11:08:15.185Z,7.70
2017-12-05T11:10:43.036Z,10.23
2017-12-05T11:13:10.925Z,10.60
2017-12-05T11:15:38.755Z,9.70
2017-12-05T11:18:13.138Z,11.17
2017-12-05T11:20:41.018Z,10.57
2017-12-05T11:23:08.877Z,9.20
2017-12-05T11:25:36.776Z,8.80
2017-12-05T11:28:04.644Z,12.47
2017-12-05T11:30:32.512Z,11.53
2017-12-05T11:33:00.386Z,11.20
2017-12-05T11:35:28.248Z,13.43
2017-12-05T11:37:56.088Z,12.70
2017-12-05T11:40:23.928Z,11.70
2017-12-05T11:42:51.792Z,10.33
2017-12-05T11:45:19.649Z,9.90
2017-12-05T11:47:47.532Z,9.97
2017-12-05T11:50:15.381Z,11.20
2017-12-05T11:52:43.311Z,9.30
2017-12-05T11:55:11.171Z,10.10
2017-12-05T11:57:38.996Z,10.97
2017-12-05T12:00:06.844Z,9.80
2017-12-05T12:02:34.694Z,8.67
2017-12-05T12:05:02.564Z,9.90
2017-12-05T12:07:30.419Z,9.30
2017-12-05T12:09:58.251Z,9.60
2017-12-05T12:12:26.161Z,8.70
2017-12-05T12:14:54.034Z,9.13
2017-12-05T12:17:21.885Z,8.27
2017-12-05T12:19:49.748Z,8.70
2017-12-05T12:22:17.614Z,9.40
2017-12-05T12:24:45.477Z,9.80
2017-12-05T12:27:13.354Z,8.13
2017-12-05T12:29:41.225Z,7.93
2017-12-05T12:32:09.077Z,9.13
2017-12-05T12:34:36.957Z,6.83
2017-12-05T12:37:04.815Z,7.87
2017-12-05T12:39:32.640Z,6.80
2017-12-05T12:42:00.516Z,7.67
2017-12-05T12:44:28.361Z,8.17
2017-12-05T12:46:56.249Z,7.67
2017-12-05T12:49:24.101Z,6.50
2017-12-05T12:51:52.006Z,5.47
2017-12-05T12:54:19.865Z,6.57
2017-12-05T12:56:47.732Z,6.30
2017-12-05T12:59:15.601Z,6.00
2017-12-05T13:01:43.468Z,5.73
2017-12-05T13:04:11.320Z,5.40
2017-12-05T13:06:39.208Z,4.40
2017-12-05T13:09:07.020Z,3.90
2017-12-05T13:11:34.844Z,4.37
2017-12-05T13:14:02.652Z,4.80
2017-12-05T13:16:30.492Z,4.40
2017-12-05T13:18:58.360Z,4.40
2017-12-05T13:21:26.191Z,4.00
2017-12-05T13:23:54.045Z,6.50
2017-12-05T13:26:21.932Z,5.07
2017-12-05T13:28:49.801Z,4.80
2017-12-05T13:31:17.656Z,3.83
2017-12-05T13:33:45.520Z,3.60
2017-12-05T13:36:13.403Z,4.90
2017-12-05T13:38:41.295Z,4.70
2017-12-05T13:41:09.136Z,4.57
2017-12-05T13:43:37.037Z,4.27
2017-12-05T13:46:04.905Z,5.00
2017-12-05T13:48:32.772Z,5.30
2017-12-05T13:51:00.623Z,5.30
2017-12-05T13:53:28.547Z,4.40
2017-12-05T13:55:56.415Z,4.07
2017-12-05T13:58:24.344Z,4.53
2017-12-05T14:00:52.188Z,3.57
2017-12-05T14:03:20.046Z,4.43
2017-12-05T14:05:47.940Z,4.20
2017-12-05T14:08:15.784Z,3.53
2017-12-05T14:10:43.751Z,3.97
2017-12-05T14:13:11.612Z,4.00
2017-12-05T14:15:39.484Z,4.00
2017-12-05T14:18:07.392Z,4.33
2017-12-05T14:20:35.278Z,5.57
2017-12-05T14:23:03.105Z,4.10
2017-12-05T14:25:30.960Z,5.17
2017-12-05T14:27:58.815Z,5.33
2017-12-05T14:30:26.677Z,5.03
2017-12-05T14:32:54.510Z,5.03
2017-12-05T14:35:22.350Z,5.30
2017-12-05T14:37:50.177Z,5.60
2017-12-05T14:40:18.001Z,5.13
2017-12-05T14:42:45.816Z,5.00
2017-12-05T14:45:13.648Z,4.43
2017-12-05T14:47:41.499Z,5.67
2017-12-05T14:50:09.348Z,6.60
2017-12-05T14:52:38.190Z,7.90
2017-12-05T14:55:06.048Z,4.30
2017-12-05T14:57:39.924Z,5.50
2017-12-05T15:00:07.788Z,7.70
2017-12-05T15:02:35.655Z,6.40
2017-12-05T15:05:03.477Z,5.77
2017-12-05T15:07:31.358Z,5.47
2017-12-05T15:09:59.275Z,6.13
2017-12-05T15:12:27.121Z,7.10
2017-12-05T15:14:55.216Z,6.80
2017-12-05T15:17:30.034Z,6.50
2017-12-05T15:19:57.916Z,6.33
2017-12-05T15:22:25.772Z,5.77
2017-12-05T15:24:53.633Z,5.47
2017-12-05T15:27:28.150Z,5.80
2017-12-05T15:30:06.459Z,5.40
2017-12-05T15:32:35.206Z,4.33
2017-12-05T15:35:03.040Z,4.77
2017-12-05T15:37:30.919Z,3.43
2017-12-05T15:39:58.762Z,5.00
2017-12-05T15:42:26.596Z,3.63
2017-12-05T15:44:54.436Z,4.70
2017-12-05T15:47:22.308Z,5.20
2017-12-05T15:49:50.124Z,4.70
2017-12-05T15:52:18.002Z,5.17
2017-12-05T15:54:45.868Z,5.17
2017-12-05T15:57:13.716Z,4.70
2017-12-05T15:59:41.556Z,5.20
2017-12-05T16:02:09.451Z,6.30
2017-12-05T16:04:37.276Z,5.43
2017-12-05T16:07:05.084Z,6.40
2017-12-05T16:09:32.920Z,4.80
2017-12-05T16:12:00.728Z,4.20
2017-12-05T16:14:28.540Z,6.50
2017-12-05T16:16:56.357Z,5.00
2017-12-05T16:19:24.217Z,6.40
2017-12-05T16:21:52.069Z,6.90
2017-12-05T16:24:19.930Z,6.60
2017-12-05T16:26:47.752Z,6.60
2017-12-05T16:29:15.639Z,6.00
2017-12-05T16:31:43.495Z,6.00
2017-12-05T16:34:11.320Z,7.07
2017-12-05T16:36:46.017Z,6.47
2017-12-05T16:39:13.876Z,6.63
2017-12-05T16:41:41.712Z,8.80
2017-12-05T16:44:09.615Z,5.57
2017-12-05T16:46:37.488Z,7.47
2017-12-05T16:49:05.353Z,6.70
2017-12-05T16:51:33.258Z,6.67
2017-12-05T16:54:01.223Z,6.53
2017-12-05T16:56:29.181Z,6.07
2017-12-05T16:58:57.066Z,8.10
2017-12-05T17:01:24.947Z,6.30
2017-12-05T17:03:52.794Z,7.30
2017-12-05T17:06:20.664Z,7.17
2017-12-05T17:08:48.540Z,4.93
2017-12-05T17:11:16.376Z,7.20
2017-12-05T17:13:44.269Z,7.53
2017-12-05T17:16:12.112Z,6.00
2017-12-05T17:18:39.953Z,7.97
2017-12-05T17:21:07.807Z,7.50
2017-12-05T17:23:35.686Z,9.63
2017-12-05T17:26:03.576Z,9.70
2017-12-05T17:28:31.441Z,10.73
2017-12-05T17:30:59.310Z,9.17
2017-12-05T17:33:27.157Z,11.03
2017-12-05T17:35:54.997Z,9.73
2017-12-05T17:38:22.901Z,11.63
2017-12-05T17:40:50.752Z,12.23
2017-12-05T17:43:18.713Z,9.00
2017-12-05T17:45:46.582Z,12.43
2017-12-05T17:48:20.478Z,12.40
2017-12-05T17:50:48.391Z,12.50
2017-12-05T17:53:16.244Z,11.17
2017-12-05T17:55:44.153Z,11.70
2017-12-05T17:58:12.067Z,12.80
2017-12-05T18:00:39.983Z,11.23
2017-12-05T18:03:07.872Z,10.97
2017-12-05T18:05:36.029Z,10.50
2017-12-05T18:08:12.634Z,29.83
2017-12-05T18:10:40.529Z,10.80
2017-12-05T18:13:08.393Z,8.93
2017-12-05T18:15:36.261Z,9.40
2017-12-05T18:18:04.144Z,9.90
2017-12-05T18:20:32.034Z,9.20
2017-12-05T18:22:59.933Z,9.40
2017-12-05T18:25:27.826Z,7.97
2017-12-05T18:27:55.729Z,7.80
2017-12-05T18:30:23.610Z,7.60
2017-12-05T18:33:07.090Z,17.23
2017-12-05T18:35:34.972Z,6.20
2017-12-05T18:38:02.852Z,7.83
2017-12-05T18:40:30.710Z,5.53
2017-12-05T18:42:58.578Z,5.90
2017-12-05T18:45:26.442Z,4.90
2017-12-05T18:47:54.304Z,4.43
2017-12-05T18:50:22.178Z,4.60
2017-12-05T18:52:50.098Z,4.20
2017-12-05T18:55:18.006Z,4.67
2017-12-05T18:57:45.897Z,3.60
2017-12-05T19:00:13.813Z,4.40
2017-12-05T19:02:41.742Z,4.73
2017-12-05T19:05:09.726Z,4.60
2017-12-05T19:07:44.636Z,5.77
2017-12-05T19:10:12.558Z,5.87
2017-12-05T19:12:40.460Z,6.57
2017-12-05T19:15:08.368Z,6.93
2017-12-05T19:17:42.770Z,7.73
2017-12-05T19:20:10.711Z,6.37
2017-12-05T19:22:38.608Z,6.50
2017-12-05T19:25:06.456Z,6.70
2017-12-05T19:27:34.406Z,8.17
2017-12-05T19:30:02.338Z,4.80
2017-12-05T19:32:31.534Z,7.93
2017-12-05T19:35:01.162Z,8.70
2017-12-05T19:37:35.667Z,9.80
2017-12-05T19:40:03.560Z,8.33
2017-12-05T19:42:31.411Z,8.17
2017-12-05T19:44:59.257Z,9.17
2017-12-05T19:47:33.983Z,9.10
2017-12-05T19:50:01.868Z,9.50
2017-12-05T19:52:29.745Z,10.50
2017-12-05T19:54:57.649Z,11.60
2017-12-05T19:57:32.221Z,10.93
2017-12-05T20:00:02.178Z,9.83
2017-12-05T20:02:30.660Z,9.40
2017-12-05T20:04:59.227Z,8.23
2017-12-05T20:07:27.537Z,7.07
2017-12-05T20:12:39.310Z,9.40
2017-12-05T20:15:07.212Z,9.97
2017-12-05T20:17:35.044Z,9.30
2017-12-05T20:20:02.912Z,11.67
2017-12-05T20:22:30.834Z,10.30
2017-12-05T20:24:58.728Z,7.10
2017-12-05T20:27:26.599Z,10.10
2017-12-05T20:29:54.558Z,9.87
2017-12-05T20:32:22.418Z,9.53
2017-12-05T20:34:50.302Z,8.50
2017-12-05T20:37:18.148Z,6.37
2017-12-05T20:39:46.015Z,10.07
2017-12-05T20:42:13.868Z,8.20
2017-12-05T20:44:41.706Z,8.83
2017-12-05T20:47:09.585Z,8.77
2017-12-05T20:49:37.368Z,7.93
2017-12-05T20:52:05.173Z,8.33
2017-12-05T20:54:32.964Z,7.30
2017-12-05T20:57:00.761Z,6.60
2017-12-05T20:59:28.547Z,7.67
2017-12-05T21:01:56.306Z,7.60
2017-12-05T21:04:24.087Z,7.67
2017-12-05T21:06:58.616Z,7.97
2017-12-05T21:09:26.381Z,10.43
2017-12-05T21:11:54.211Z,10.73
2017-12-05T21:14:21.983Z,7.00
2017-12-05T21:16:49.779Z,9.27
2017-12-05T21:19:17.616Z,12.90
2017-12-05T21:21:45.414Z,10.60
2017-12-05T21:24:13.212Z,13.10
2017-12-05T21:26:41.025Z,12.20
2017-12-05T21:29:08.879Z,12.00
2017-12-05T21:31:36.670Z,13.63
2017-12-05T21:34:04.523Z,13.87
2017-12-05T21:39:38.868Z,12.73
2017-12-05T21:42:08.183Z,14.57
2017-12-05T21:44:36.120Z,10.70
2017-12-05T21:47:03.918Z,15.07
2017-12-05T21:49:31.711Z,14.77
2017-12-05T21:51:59.484Z,11.70
2017-12-05T21:54:27.280Z,10.40
2017-12-05T21:56:55.055Z,10.20
2017-12-05T21:59:22.829Z,12.37
2017-12-05T22:01:50.588Z,12.10
2017-12-05T22:04:18.359Z,14.80
2017-12-05T22:06:46.309Z,10.50
2017-12-05T22:09:14.153Z,12.80
2017-12-05T22:11:41.984Z,13.50
2017-12-05T22:14:09.817Z,13.57
2017-12-05T22:16:37.673Z,15.40
2017-12-05T22:19:05.513Z,15.77
2017-12-05T22:21:33.356Z,16.60
2017-12-05T22:24:01.197Z,17.73
2017-12-05T22:26:29.096Z,16.00
2017-12-05T22:28:57.000Z,17.83
2017-12-05T22:31:24.840Z,19.67
2017-12-05T22:33:52.690Z,18.07
2017-12-05T22:36:20.568Z,17.83
2017-12-05T22:38:55.164Z,18.77
2017-12-05T22:41:23.349Z,16.77
2017-12-05T22:43:51.439Z,17.43
2017-12-05T22:46:19.527Z,14.40
2017-12-05T22:48:52.348Z,19.43
2017-12-05T22:51:20.229Z,17.83
2017-12-05T22:53:48.877Z,19.23
2017-12-05T22:56:16.769Z,19.27
2017-12-05T22:58:44.633Z,16.07
2017-12-05T23:01:12.504Z,21.10
2017-12-05T23:03:40.424Z,21.93
2017-12-05T23:06:08.279Z,24.53
2017-12-05T23:08:36.145Z,22.07
2017-12-05T23:11:04.016Z,23.83
2017-12-05T23:13:31.895Z,22.70
2017-12-05T23:15:59.747Z,25.40
2017-12-05T23:18:27.609Z,27.83
2017-12-05T23:20:55.453Z,19.77
2017-12-05T23:23:23.312Z,23.53
2017-12-05T23:25:51.184Z,27.47
2017-12-05T23:28:25.298Z,26.10
2017-12-05T23:30:53.124Z,25.00
2017-12-05T23:33:20.962Z,26.13
2017-12-05T23:35:48.820Z,27.33
2017-12-05T23:38:16.618Z,23.97
2017-12-05T23:40:44.469Z,24.97
2017-12-05T23:43:12.311Z,27.20
2017-12-05T23:45:40.150Z,30.63
2017-12-05T23:48:07.982Z,32.57
2017-12-05T23:50:35.828Z,26.53
2017-12-05T23:53:04.775Z,29.47
2017-12-05T23:55:32.643Z,28.30
2017-12-05T23:58:06.622Z,27.50
